Terminal Aerodrome Forecast
Issued by NWS Jackson, MS

Home | Current Version | Previous Version | Text Only | Print | Product List | Glossary On
Versions: 1 2 3 4 5 6 7 8 9 10 11 12 13 14 15 16 17 18 19
326
FTUS44 KMEG 011643 AAB
TAFTUP
TAF AMD
KTUP 011643Z 0117/0212 18005KT P6SM OVC020
      TEMPO 0117/0118 SCT020 BKN035
     FM011800 20007KT P6SM VCTS SCT025CB BKN150
     FM020100 18005KT P6SM BKN050 OVC200
     FM020900 18004KT P6SM VCSH BKN050 OVC100=

USA.gov is the U.S. government's official web portal to all federal, state and local government web resources and services.